Time;durP1;ratioP1;P1;durP2;ratioP2;P2;SDS_P1;SDS_P2;PMS_P1;PMS_P2;Temp;Humidity;BMP_temperature;BMP_pressure;BME280_temperature;BME280_humidity;BME280_pressure;Samples;Min_cycle;Max_cycle;Signal;HPM_P1;HPM_P2
2022/04/01 00:00:18;;;;;;;;;;;;;;;19.04;50.45;98342.44;2090006;28;19927;-64
2022/04/01 00:01:18;;;;;;;;;;;;;;;19.03;50.44;98343.44;2090679;28;19920;-64
2022/04/01 00:02:19;;;;;;;;;;;;;;;19.04;50.36;98345.16;2091795;28;19989;-62
2022/04/01 00:03:19;;;;;;;;;;;;;;;19.04;50.35;98345.16;2089669;28;19915;-64
2022/04/01 00:04:19;;;;;;;;;;;;;;;19.02;50.35;98348.06;2091733;28;19927;-62
2022/04/01 00:05:20;;;;;;;;;;;;;;;19.03;50.23;98359.84;2090393;28;20257;-63
2022/04/01 00:06:20;;;;;;;;;;;;;;;19.03;50.39;98354.38;2088514;28;19927;-63
2022/04/01 00:07:20;;;;;;;;;;;;;;;19.02;50.32;98358.16;2095240;28;19919;-63
2022/04/01 00:08:21;;;;;;;;;;;;;;;19.02;50.40;98375.38;2089855;28;19920;-63
2022/04/01 00:09:21;;;;;;;;;;;;;;;19.02;50.32;98364.47;2091476;28;20034;-63
2022/04/01 00:10:22;;;;;;;;;;;;;;;19.00;50.35;98361.06;2090990;28;19924;-64
2022/04/01 00:11:22;;;;;;;;;;;;;;;19.00;50.30;98365.69;2089009;28;20415;-64
2022/04/01 00:12:22;;;;;;;;;;;;;;;18.98;50.37;98367.75;2088693;28;19920;-63
2022/04/01 00:13:22;;;;;;;;;;;;;;;18.97;50.38;98366.06;2089778;28;19921;-64
2022/04/01 00:14:24;;;;;;;;;;;;;;;18.97;50.52;98368.81;2087810;28;19920;-63
2022/04/01 00:15:24;;;;;;;;;;;;;;;18.96;50.59;98380.75;2092068;28;19912;-64
2022/04/01 00:16:24;;;;;;;;;;;;;;;18.94;50.52;98377.38;2089181;28;19920;-63
2022/04/01 00:17:25;;;;;;;;;;;;;;;18.94;50.51;98383.69;2084716;28;20662;-64
2022/04/01 00:18:25;;;;;;;;;;;;;;;18.93;50.60;98387.44;2085261;28;19994;-64
2022/04/01 00:19:26;;;;;;;;;;;;;;;18.92;50.53;98388.50;2086755;28;19986;-64
2022/04/01 00:20:27;;;;;;;;;;;;;;;18.92;50.61;98395.84;2090254;28;19928;-64
2022/04/01 00:21:27;;;;;;;;;;;;;;;18.92;50.63;98395.84;2081931;28;19920;-63
2022/04/01 00:22:28;;;;;;;;;;;;;;;18.91;50.60;98410.50;2082195;28;20418;-63
2022/04/01 00:23:28;;;;;;;;;;;;;;;18.91;50.60;98405.03;2089169;28;20354;-63
2022/04/01 00:24:28;;;;;;;;;;;;;;;18.89;50.74;98407.13;2091959;28;20405;-62
2022/04/01 00:25:29;;;;;;;;;;;;;;;18.88;50.76;98405.44;2088859;28;19989;-63
2022/04/01 00:26:29;;;;;;;;;;;;;;;18.87;50.83;98404.59;2085587;28;19912;-64
2022/04/01 00:27:29;;;;;;;;;;;;;;;18.88;50.89;98416.34;2084790;28;19921;-64
2022/04/01 00:28:30;;;;;;;;;;;;;;;18.89;50.78;98412.56;2089238;28;20299;-64
2022/04/01 00:29:30;;;;;;;;;;;;;;;18.89;50.76;98415.31;2090221;28;19922;-63
2022/04/01 00:30:33;;;;;;;;;;;;;;;18.89;50.70;98415.31;2091242;28;19957;-64
2022/04/01 00:31:33;;;;;;;;;;;;;;;18.89;50.63;98415.31;2090095;28;19920;-63
2022/04/01 00:32:34;;;;;;;;;;;;;;;18.90;50.38;98426.03;2091957;28;19920;-64
2022/04/01 00:33:34;;;;;;;;;;;;;;;18.90;50.56;98419.75;2085722;28;20109;-63
2022/04/01 00:34:36;;;;;;;;;;;;;;;18.90;50.43;98436.13;2091100;28;19920;-64
2022/04/01 00:35:37;;;;;;;;;;;;;;;18.90;50.46;98430.66;2080993;28;20446;-63
2022/04/01 00:36:37;;;;;;;;;;;;;;;18.89;50.37;98434.41;2081961;28;20911;-63
2022/04/01 00:37:38;;;;;;;;;;;;;;;18.88;50.41;98446.38;2090979;28;19920;-63
2022/04/01 00:38:38;;;;;;;;;;;;;;;18.87;50.51;98442.81;2090026;28;19920;-64
2022/04/01 00:39:38;;;;;;;;;;;;;;;18.84;50.43;98454.97;2088366;28;20170;-63
2022/04/01 00:40:39;;;;;;;;;;;;;;;18.85;50.37;98453.06;2091008;28;19912;-64
2022/04/01 00:41:40;;;;;;;;;;;;;;;18.85;50.18;98461.25;2090900;28;19951;-63
2022/04/01 00:42:41;;;;;;;;;;;;;;;18.82;50.22;98459.75;2090416;28;20544;-64
2022/04/01 00:43:41;;;;;;;;;;;;;;;18.81;50.15;98449.88;2081406;28;19921;-64
2022/04/01 00:44:42;;;;;;;;;;;;;;;18.80;50.22;98442.72;2080172;28;20067;-64
2022/04/01 00:45:42;;;;;;;;;;;;;;;18.79;50.23;98457.41;2088947;28;20191;-63
2022/04/01 00:46:43;;;;;;;;;;;;;;;18.79;50.37;98451.94;2090958;28;19939;-63
2022/04/01 00:47:43;;;;;;;;;;;;;;;18.80;50.27;98459.09;2079043;28;19927;-63
2022/04/01 00:48:44;;;;;;;;;;;;;;;18.78;50.37;98458.44;2082062;28;20414;-64
2022/04/01 00:49:45;;;;;;;;;;;;;;;18.76;50.43;98459.66;2085949;28;19925;-63
2022/04/01 00:50:45;;;;;;;;;;;;;;;18.75;50.54;98460.66;2090379;28;19962;-64
2022/04/01 00:51:47;;;;;;;;;;;;;;;18.75;50.67;98458.78;2089812;28;20300;-63
2022/04/01 00:52:47;;;;;;;;;;;;;;;18.74;50.71;98454.38;2090278;28;20337;-64
2022/04/01 00:53:48;;;;;;;;;;;;;;;18.73;50.82;98458.09;2090243;28;19935;-64
2022/04/01 00:54:49;;;;;;;;;;;;;;;18.73;50.75;98474.50;2091368;28;20259;-63
2022/04/01 00:55:50;;;;;;;;;;;;;;;18.73;50.72;98466.28;2084124;28;19912;-63
2022/04/01 00:56:50;;;;;;;;;;;;;;;18.75;50.83;98458.78;2090002;28;20445;-63
2022/04/01 00:57:51;;;;;;;;;;;;;;;18.75;50.64;98475.16;2086449;28;19912;-63
2022/04/01 00:58:51;;;;;;;;;;;;;;;18.74;50.50;98476.19;2091440;28;19947;-64
2022/04/01 00:59:54;;;;;;;;;;;;;;;18.74;50.54;98481.66;2088454;28;19978;-63
2022/04/01 01:00:54;;;;;;;;;;;;;;;18.74;50.45;98480.78;2084528;28;20365;-63
2022/04/01 01:01:55;;;;;;;;;;;;;;;18.75;50.34;98493.41;2086528;28;19927;-63
2022/04/01 01:02:57;;;;;;;;;;;;;;;18.73;50.48;98484.56;2091966;28;19920;-63
2022/04/01 01:04:00;;;;;;;;;;;;;;;18.72;50.45;98483.72;2089422;28;19920;-63
2022/04/01 01:05:02;;;;;;;;;;;;;;;18.73;50.40;98490.03;2089753;28;19954;-63
2022/04/01 01:06:02;;;;;;;;;;;;;;;18.72;50.32;98494.63;2090364;28;19912;-63
2022/04/01 01:07:02;;;;;;;;;;;;;;;18.73;50.36;98490.03;2089135;28;19918;-64
2022/04/01 01:08:05;;;;;;;;;;;;;;;18.71;50.24;98487.47;2090028;28;19915;-64
2022/04/01 01:09:05;;;;;;;;;;;;;;;18.70;50.32;98495.88;2089987;28;19915;-64
2022/04/01 01:10:06;;;;;;;;;;;;;;;18.69;50.36;98484.09;2084318;28;19916;-64
2022/04/01 01:11:07;;;;;;;;;;;;;;;18.70;50.25;98490.41;2091517;28;19923;-63
2022/04/01 01:12:07;;;;;;;;;;;;;;;18.68;50.04;98490.56;2089316;28;19923;-64
2022/04/01 01:13:08;;;;;;;;;;;;;;;18.68;50.06;98498.75;2089265;28;19963;-64
2022/04/01 01:14:09;;;;;;;;;;;;;;;18.67;50.07;98499.81;2091914;28;19994;-64
2022/04/01 01:15:10;;;;;;;;;;;;;;;18.67;50.11;98497.09;2089572;28;19931;-63
2022/04/01 01:16:11;;;;;;;;;;;;;;;18.66;50.14;98498.09;2089211;28;19929;-64
2022/04/01 01:17:14;;;;;;;;;;;;;;;18.64;50.25;98501.03;2091495;28;20129;-63
2022/04/01 01:18:15;;;;;;;;;;;;;;;18.63;50.11;98495.75;2083085;28;19920;-63
2022/04/01 01:19:16;;;;;;;;;;;;;;;18.64;50.14;98508.34;2090892;28;19919;-63
2022/04/01 01:20:17;;;;;;;;;;;;;;;18.64;50.17;98508.34;2089342;28;19920;-63
2022/04/01 01:21:19;;;;;;;;;;;;;;;18.61;50.39;98506.84;2088606;28;22142;-64
2022/04/01 01:22:19;;;;;;;;;;;;;;;18.61;50.20;98514.19;2088668;28;19947;-64
2022/04/01 01:23:19;;;;;;;;;;;;;;;18.60;50.35;98517.97;2091788;28;19918;-65
2022/04/01 01:24:41;;;;;;;;;;;;;;;18.60;50.52;98526.16;2091389;28;19924;-64
2022/04/01 01:25:42;;;;;;;;;;;;;;;18.56;50.21;98522.91;2088025;28;20583;-62
2022/04/01 01:26:50;;;;;;;;;;;;;;;18.58;50.44;98530.94;2093230;28;19912;-63
2022/04/01 01:27:50;;;;;;;;;;;;;;;18.55;50.64;98520.41;2090677;28;20003;-64
2022/04/01 01:28:51;;;;;;;;;;;;;;;18.55;50.25;98531.31;2091800;28;20383;-63
2022/04/01 01:29:51;;;;;;;;;;;;;;;18.54;50.22;98530.44;2073283;28;19917;-63
2022/04/01 01:30:52;;;;;;;;;;;;;;;18.55;50.23;98536.75;2075678;28;19960;-63
2022/04/01 01:31:54;;;;;;;;;;;;;;;18.55;50.26;98532.16;2088255;28;19923;-62
2022/04/01 01:32:55;;;;;;;;;;;;;;;18.55;50.34;98536.75;2090592;28;20587;-63
2022/04/01 01:33:57;;;;;;;;;;;;;;;18.54;50.19;98554.16;2083194;28;19920;-64
2022/04/01 01:34:58;;;;;;;;;;;;;;;18.55;50.23;98544.97;2089985;28;19920;-63
2022/04/01 01:35:58;;;;;;;;;;;;;;;18.54;50.30;98551.44;2090649;28;19962;-63
2022/04/01 01:37:00;;;;;;;;;;;;;;;18.55;50.30;98555.88;2090489;28;19979;-63
2022/04/01 01:38:01;;;;;;;;;;;;;;;18.53;50.22;98561.50;2089956;28;19924;-63
2022/04/01 01:39:02;;;;;;;;;;;;;;;18.55;50.17;98561.31;2091450;28;19924;-64
2022/04/01 01:40:03;;;;;;;;;;;;;;;18.53;50.29;98545.13;2081423;28;19932;-63
2022/04/01 01:41:03;;;;;;;;;;;;;;;18.53;50.14;98560.66;2073950;28;20305;-64
2022/04/01 01:42:05;;;;;;;;;;;;;;;18.52;50.39;98569.84;2070908;28;19966;-63
2022/04/01 01:43:06;;;;;;;;;;;;;;;18.51;50.24;98566.28;2078722;28;20733;-63
2022/04/01 01:44:06;;;;;;;;;;;;;;;18.50;50.23;98564.59;2081643;28;19920;-63
2022/04/01 01:45:07;;;;;;;;;;;;;;;18.50;50.29;98571.94;2082662;28;20932;-63
2022/04/01 01:46:08;;;;;;;;;;;;;;;18.50;50.50;98571.94;2083720;28;19928;-64
2022/04/01 01:47:08;;;;;;;;;;;;;;;18.49;50.53;98570.22;2093571;28;20034;-64
2022/04/01 01:48:08;;;;;;;;;;;;;;;18.48;50.36;98574.00;2090826;28;19927;-63
2022/04/01 01:49:09;;;;;;;;;;;;;;;18.47;50.42;98572.28;2090002;28;20343;-63
2022/04/01 01:55:27;;;;;;;;;;;;;;;18.43;50.42;98580.00;2090180;28;20270;-64
2022/04/01 01:56:27;;;;;;;;;;;;;;;18.42;50.41;98575.56;2093170;28;19959;-62
2022/04/01 01:57:29;;;;;;;;;;;;;;;18.40;50.42;98583.94;2088897;28;19921;-63
2022/04/01 01:58:29;;;;;;;;;;;;;;;18.42;50.46;98581.00;2086558;28;20005;-63
2022/04/01 01:59:29;;;;;;;;;;;;;;;18.42;50.30;98579.16;2090641;28;19924;-63
2022/04/01 02:00:30;;;;;;;;;;;;;;;18.42;50.36;98579.16;2087210;28;20179;-63
2022/04/01 02:01:30;;;;;;;;;;;;;;;18.42;50.29;98581.88;2091294;28;20065;-64
2022/04/01 02:02:30;;;;;;;;;;;;;;;18.42;50.32;98584.63;2089159;28;19924;-64
2022/04/01 02:03:31;;;;;;;;;;;;;;;18.42;50.20;98590.06;2091760;28;20015;-64
2022/04/01 02:04:35;;;;;;;;;;;;;;;18.42;50.21;98598.25;2092136;28;19931;-64
2022/04/01 02:05:35;;;;;;;;;;;;;;;18.42;50.47;98592.81;2089437;28;19924;-63
2022/04/01 02:06:36;;;;;;;;;;;;;;;18.42;50.14;98594.66;2090588;28;20431;-64
2022/04/01 02:07:37;;;;;;;;;;;;;;;18.41;50.26;98591.09;2091240;28;19983;-64
2022/04/01 02:08:37;;;;;;;;;;;;;;;18.41;50.28;98591.09;2091055;28;20045;-64
2022/04/01 02:09:40;;;;;;;;;;;;;;;18.39;50.17;98598.59;2089835;28;20414;-63
2022/04/01 02:10:40;;;;;;;;;;;;;;;18.39;50.27;98614.97;2088160;28;19912;-64
2022/04/01 02:11:40;;;;;;;;;;;;;;;18.40;50.16;98611.22;2089639;28;19963;-64
2022/04/01 02:12:43;;;;;;;;;;;;;;;18.40;50.14;98611.22;2091513;28;19914;-64
2022/04/01 02:13:45;;;;;;;;;;;;;;;18.39;50.18;98614.97;2089294;28;20371;-64
2022/04/01 02:14:45;;;;;;;;;;;;;;;18.39;50.31;98614.13;2092076;28;20504;-64
2022/04/01 02:15:45;;;;;;;;;;;;;;;18.38;50.39;98618.75;2094216;28;20298;-64
2022/04/01 02:16:46;;;;;;;;;;;;;;;18.36;50.46;98623.53;2088650;28;19912;-65
2022/04/01 02:17:46;;;;;;;;;;;;;;;18.35;50.12;98629.19;2085289;28;19921;-62
2022/04/01 02:18:47;;;;;;;;;;;;;;;18.34;50.18;98628.31;2081605;28;19920;-63
2022/04/01 02:19:49;;;;;;;;;;;;;;;18.33;50.27;98625.78;2089358;28;19956;-63
2022/04/01 02:20:50;;;;;;;;;;;;;;;18.33;50.33;98620.31;2090617;28;19959;-64
2022/04/01 02:21:51;;;;;;;;;;;;;;;18.31;50.47;98631.41;2093639;28;20441;-64
2022/04/01 02:22:53;;;;;;;;;;;;;;;18.29;50.47;98628.00;2094820;28;19989;-63
2022/04/01 02:23:54;;;;;;;;;;;;;;;18.28;50.48;98623.59;2088386;28;20442;-64
2022/04/01 02:24:54;;;;;;;;;;;;;;;18.28;50.62;98653.59;2087691;28;19921;-63
2022/04/01 02:25:54;;;;;;;;;;;;;;;18.28;50.60;98625.47;2089486;28;20645;-63
2022/04/01 02:26:55;;;;;;;;;;;;;;;18.28;50.36;98630.94;2087959;28;20878;-63
2022/04/01 02:27:55;;;;;;;;;;;;;;;18.27;50.34;98642.84;2093149;28;19973;-64
2022/04/01 02:28:59;;;;;;;;;;;;;;;18.26;50.34;98631.09;2089968;28;19951;-63
2022/04/01 02:29:59;;;;;;;;;;;;;;;18.25;50.66;98643.03;2087377;28;20421;-63
2022/04/01 02:31:00;;;;;;;;;;;;;;;18.26;50.56;98646.63;2091712;28;20677;-63
2022/04/01 02:32:00;;;;;;;;;;;;;;;18.25;50.45;98629.41;2088771;28;19958;-63
2022/04/01 02:33:02;;;;;;;;;;;;;;;18.25;50.22;98653.97;2088167;28;19920;-64
2022/04/01 02:34:03;;;;;;;;;;;;;;;18.26;50.19;98650.19;2086779;28;19981;-64
2022/04/01 02:35:04;;;;;;;;;;;;;;;18.25;49.97;98656.69;2082343;28;20505;-64
2022/04/01 02:36:10;;;;;;;;;;;;;;;18.26;50.26;98647.47;2083102;28;20654;-64
2022/04/01 02:37:11;;;;;;;;;;;;;;;18.25;50.25;98658.53;2092520;28;20208;-64
2022/04/01 02:38:11;;;;;;;;;;;;;;;18.24;50.37;98654.97;2090442;28;19924;-64
2022/04/01 02:39:12;;;;;;;;;;;;;;;18.25;50.16;98656.69;2092113;28;20634;-64
2022/04/01 02:40:13;;;;;;;;;;;;;;;18.24;50.43;98654.97;2091481;28;19974;-64
2022/04/01 02:41:13;;;;;;;;;;;;;;;18.25;50.36;98664.88;2089339;28;19956;-65
2022/04/01 02:42:13;;;;;;;;;;;;;;;18.25;50.35;98650.34;2091068;28;19947;-64
2022/04/01 02:43:14;;;;;;;;;;;;;;;18.24;50.21;98660.41;2090135;28;19927;-63
2022/04/01 02:44:14;;;;;;;;;;;;;;;18.24;50.13;98652.25;2081927;28;19920;-63
2022/04/01 02:45:14;;;;;;;;;;;;;;;18.24;49.97;98663.16;2084261;28;19920;-63
2022/04/01 02:46:15;;;;;;;;;;;;;;;18.22;50.04;98657.00;2091071;28;20664;-64
2022/04/01 02:47:15;;;;;;;;;;;;;;;18.21;50.12;98660.78;2088826;28;20439;-64
2022/04/01 02:48:16;;;;;;;;;;;;;;;18.20;50.04;98664.53;2092632;28;19924;-63
2022/04/01 02:49:17;;;;;;;;;;;;;;;18.20;50.05;98659.94;2089392;28;20239;-63
2022/04/01 02:50:18;;;;;;;;;;;;;;;18.20;50.04;98669.97;2092397;28;19974;-63
2022/04/01 02:51:18;;;;;;;;;;;;;;;18.19;49.97;98669.13;2094781;28;19920;-63
2022/04/01 02:52:18;;;;;;;;;;;;;;;18.17;49.84;98673.91;2084809;28;20763;-63
2022/04/01 02:53:19;;;;;;;;;;;;;;;18.19;49.88;98666.41;2080320;28;19920;-63
2022/04/01 02:54:22;;;;;;;;;;;;;;;18.17;50.00;98671.19;2079118;28;20461;-64
2022/04/01 02:55:22;;;;;;;;;;;;;;;18.17;49.87;98675.81;2078348;28;20373;-63
2022/04/01 02:56:22;;;;;;;;;;;;;;;18.17;49.94;98675.81;2088542;28;19920;-63
2022/04/01 02:57:23;;;;;;;;;;;;;;;18.16;49.82;98680.41;2092466;28;19989;-63
2022/04/01 02:58:23;;;;;;;;;;;;;;;18.17;49.92;98675.81;2091887;28;20305;-63
2022/04/01 02:59:25;;;;;;;;;;;;;;;18.17;49.77;98689.44;2091383;28;19989;-63
2022/04/01 03:00:26;;;;;;;;;;;;;;;18.15;49.76;98678.72;2092886;28;19973;-64
2022/04/01 03:01:27;;;;;;;;;;;;;;;18.15;49.60;98678.72;2090317;28;19973;-64
2022/04/01 03:02:27;;;;;;;;;;;;;;;18.16;49.69;98676.84;2087501;28;19913;-63
2022/04/01 03:03:27;;;;;;;;;;;;;;;18.16;49.82;98683.13;2091024;28;19920;-64
2022/04/01 03:04:28;;;;;;;;;;;;;;;18.16;49.91;98682.28;2090228;28;19912;-64
2022/04/01 03:05:29;;;;;;;;;;;;;;;18.17;49.69;98679.38;2091852;28;19912;-64
2022/04/01 03:06:30;;;;;;;;;;;;;;;18.18;49.69;98685.69;2090430;28;19916;-64
2022/04/01 03:07:30;;;;;;;;;;;;;;;18.18;49.64;98677.53;2093209;28;20017;-64
2022/04/01 03:08:30;;;;;;;;;;;;;;;18.18;49.54;98685.69;2089135;28;19912;-64
2022/04/01 03:09:31;;;;;;;;;;;;;;;18.19;49.56;98674.59;2090683;28;20297;-65
2022/04/01 03:10:35;;;;;;;;;;;;;;;18.20;49.41;98683.63;2093076;28;19913;-64
2022/04/01 03:11:36;;;;;;;;;;;;;;;18.21;49.47;98693.50;2090883;28;19923;-64
2022/04/01 03:12:36;;;;;;;;;;;;;;;18.21;49.54;98683.44;2090443;28;19920;-63
2022/04/01 03:13:36;;;;;;;;;;;;;;;18.22;49.34;98676.09;2092464;28;19922;-64
2022/04/01 03:14:37;;;;;;;;;;;;;;;18.23;49.19;98690.59;2086692;28;19927;-64
2022/04/01 03:15:37;;;;;;;;;;;;;;;18.23;49.33;98683.28;2089169;28;19998;-64
2022/04/01 03:16:41;;;;;;;;;;;;;;;18.23;49.36;98696.03;2094400;28;19919;-64
2022/04/01 03:17:41;;;;;;;;;;;;;;;18.22;49.49;98689.75;2091046;28;19920;-63
2022/04/01 03:18:41;;;;;;;;;;;;;;;18.22;49.51;98681.56;2091979;28;19926;-65
2022/04/01 03:19:42;;;;;;;;;;;;;;;18.21;49.71;98699.81;2091488;28;19916;-64
2022/04/01 03:20:45;;;;;;;;;;;;;;;18.21;49.71;98682.59;2090950;28;19920;-63
2022/04/01 03:21:45;;;;;;;;;;;;;;;18.21;49.63;98682.59;2088637;28;19920;-63
2022/04/01 03:22:45;;;;;;;;;;;;;;;18.21;49.58;98685.34;2091695;28;19951;-63
2022/04/01 03:23:47;;;;;;;;;;;;;;;18.20;49.46;98679.03;2092605;28;19916;-63
2022/04/01 03:24:47;;;;;;;;;;;;;;;18.20;49.27;98691.78;2090431;28;20430;-62
2022/04/01 03:25:49;;;;;;;;;;;;;;;18.19;49.38;98684.66;2091322;28;20081;-63
2022/04/01 03:26:49;;;;;;;;;;;;;;;18.17;49.45;98693.00;2090069;28;19919;-64
2022/04/01 03:27:49;;;;;;;;;;;;;;;18.18;49.31;98691.16;2087465;28;20270;-63
2022/04/01 03:28:50;;;;;;;;;;;;;;;18.17;49.48;98692.16;2090312;28;19923;-64
2022/04/01 03:29:50;;;;;;;;;;;;;;;18.17;49.41;98686.72;2089844;28;20153;-63
2022/04/01 03:30:51;;;;;;;;;;;;;;;18.16;49.37;98685.03;2084567;28;19916;-63
2022/04/01 03:31:51;;;;;;;;;;;;;;;18.15;49.34;98705.13;2092100;28;19961;-63
2022/04/01 03:32:52;;;;;;;;;;;;;;;18.15;49.67;98699.66;2085612;28;20547;-63
2022/04/01 03:33:52;;;;;;;;;;;;;;;18.14;49.62;98704.28;2092757;28;20231;-64
2022/04/01 03:34:52;;;;;;;;;;;;;;;18.14;49.60;98698.81;2089991;28;19916;-64
2022/04/01 03:35:52;;;;;;;;;;;;;;;18.15;49.51;98699.66;2089589;28;19916;-64
2022/04/01 03:36:54;;;;;;;;;;;;;;;18.15;49.51;98699.66;2089470;28;20421;-63
2022/04/01 03:37:55;;;;;;;;;;;;;;;18.15;49.38;98707.84;2086968;28;20469;-63
2022/04/01 03:38:55;;;;;;;;;;;;;;;18.15;49.41;98705.13;2091893;28;19916;-64
2022/04/01 03:39:56;;;;;;;;;;;;;;;18.15;49.19;98707.84;2089568;28;19954;-64
2022/04/01 03:40:57;;;;;;;;;;;;;;;18.14;49.22;98709.72;2091282;28;20031;-63
2022/04/01 03:41:58;;;;;;;;;;;;;;;18.15;49.14;98705.13;2080147;28;20308;-64
2022/04/01 03:42:59;;;;;;;;;;;;;;;18.14;49.48;98708.88;2081548;28;20366;-64
2022/04/01 03:44:02;;;;;;;;;;;;;;;18.14;49.29;98717.06;2090321;28;19951;-63
2022/04/01 03:45:03;;;;;;;;;;;;;;;18.14;49.39;98714.34;2088219;28;20564;-64
2022/04/01 03:46:06;;;;;;;;;;;;;;;18.12;49.37;98717.22;2086269;28;20447;-63
2022/04/01 03:47:11;;;;;;;;;;;;;;;18.12;49.50;98711.78;2090372;28;19920;-63
2022/04/01 03:48:20;;;;;;;;;;;;;;;18.11;49.48;98714.72;2089006;28;19916;-63
2022/04/01 03:49:22;;;;;;;;;;;;;;;18.10;49.51;98721.16;2090722;28;19919;-64
2022/04/01 03:50:27;;;;;;;;;;;;;;;18.08;49.68;98705.00;2091970;28;19946;-63
2022/04/01 03:51:29;;;;;;;;;;;;;;;18.08;49.56;98718.63;2091941;28;19920;-63
2022/04/01 03:52:32;;;;;;;;;;;;;;;18.07;49.68;98719.66;2090381;28;19965;-63
2022/04/01 03:53:34;;;;;;;;;;;;;;;18.07;49.58;98730.56;2085825;28;20028;-64
2022/04/01 03:54:36;;;;;;;;;;;;;;;18.06;49.67;98728.03;2090788;28;19916;-63
2022/04/01 03:55:38;;;;;;;;;;;;;;;18.06;49.71;98733.47;2087745;28;19927;-63
2022/04/01 03:56:38;;;;;;;;;;;;;;;18.06;49.85;98722.56;2091539;28;20371;-64
2022/04/01 03:57:40;;;;;;;;;;;;;;;18.05;49.85;98731.75;2086891;28;20288;-64
2022/04/01 03:58:46;;;;;;;;;;;;;;;18.04;49.81;98725.47;2090966;28;19963;-64
2022/04/01 03:59:50;;;;;;;;;;;;;;;18.04;49.72;98730.91;2092057;28;19927;-64
2022/04/01 04:00:52;;;;;;;;;;;;;;;18.04;49.76;98733.63;2090954;28;19912;-63
2022/04/01 04:01:53;;;;;;;;;;;;;;;18.04;49.74;98740.97;2082569;28;20431;-63
2022/04/01 04:02:54;;;;;;;;;;;;;;;18.04;49.71;98738.25;2082620;28;19927;-63
2022/04/01 04:03:56;;;;;;;;;;;;;;;18.04;49.56;98740.97;2089426;28;19950;-64
2022/04/01 04:04:57;;;;;;;;;;;;;;;18.03;49.64;98740.13;2088096;28;20006;-64
2022/04/01 04:05:58;;;;;;;;;;;;;;;18.03;49.47;98737.41;2089468;28;19973;-64
2022/04/01 04:06:58;;;;;;;;;;;;;;;18.03;49.69;98739.25;2089612;28;20049;-64
2022/04/01 04:08:00;;;;;;;;;;;;;;;18.02;49.49;98749.31;2090659;28;20022;-64
2022/04/01 04:09:02;;;;;;;;;;;;;;;18.02;49.53;98737.56;2089675;28;19982;-63
2022/04/01 04:10:06;;;;;;;;;;;;;;;18.02;49.42;98751.19;2090526;28;20131;-63
2022/04/01 04:11:07;;;;;;;;;;;;;;;18.01;49.34;98747.63;2087283;28;19955;-65
2022/04/01 04:12:09;;;;;;;;;;;;;;;18.00;49.35;98751.38;2079315;28;19942;-64
2022/04/01 04:13:12;;;;;;;;;;;;;;;18.02;49.47;98753.94;2081846;28;19912;-63
2022/04/01 04:14:12;;;;;;;;;;;;;;;18.02;49.57;98748.47;2087964;28;19916;-63
2022/04/01 04:15:13;;;;;;;;;;;;;;;18.00;49.48;98756.81;2080116;28;19917;-63
2022/04/01 04:16:18;;;;;;;;;;;;;;;18.00;49.75;98757.66;2084863;28;20334;-64
2022/04/01 04:17:23;;;;;;;;;;;;;;;18.00;49.47;98752.22;2082489;28;19921;-64
2022/04/01 04:18:25;;;;;;;;;;;;;;;17.99;49.52;98755.97;2090980;28;19928;-63
2022/04/01 04:19:48;;;;;;;;;;;;;;;17.98;49.50;98759.75;2087889;28;20468;-64
2022/04/01 04:20:55;;;;;;;;;;;;;;;17.97;49.43;98758.03;2089668;28;19927;-64
2022/04/01 04:22:00;;;;;;;;;;;;;;;17.96;49.48;98756.34;2091667;28;20693;-64
2022/04/01 04:23:08;;;;;;;;;;;;;;;17.96;49.68;98758.22;2090723;28;20334;-63
2022/04/01 04:24:17;;;;;;;;;;;;;;;17.94;49.76;98761.09;2090579;28;21367;-63
2022/04/01 04:25:21;;;;;;;;;;;;;;;17.93;49.77;98770.31;2088256;28;19916;-64
2022/04/01 04:26:32;;;;;;;;;;;;;;;17.92;49.68;98776.78;2090010;28;20345;-64
2022/04/01 04:27:32;;;;;;;;;;;;;;;17.92;49.69;98765.88;2089638;28;20003;-63
2022/04/01 04:28:37;;;;;;;;;;;;;;;17.92;49.86;98765.88;2090971;28;19920;-64
2022/04/01 04:29:47;;;;;;;;;;;;;;;17.90;49.86;98773.38;2089820;28;19916;-64
2022/04/01 04:30:49;;;;;;;;;;;;;;;17.90;49.96;98772.53;2091402;28;19912;-64
2022/04/01 04:31:58;;;;;;;;;;;;;;;17.90;49.95;98776.09;2085947;28;19913;-64
2022/04/01 04:33:04;;;;;;;;;;;;;;;17.90;49.75;98783.44;2089520;28;20851;-63
2022/04/01 04:34:08;;;;;;;;;;;;;;;17.89;49.76;98768.97;2087683;28;20301;-63
2022/04/01 04:35:09;;;;;;;;;;;;;;;17.89;49.81;98781.75;2085552;28;19931;-64
2022/04/01 04:36:10;;;;;;;;;;;;;;;17.89;50.00;98777.13;2086049;28;19923;-64
2022/04/01 04:37:11;;;;;;;;;;;;;;;17.88;49.99;98775.41;2090483;28;19916;-64
2022/04/01 04:38:12;;;;;;;;;;;;;;;17.87;49.78;98768.28;2084666;28;19975;-65
2022/04/01 04:39:24;;;;;;;;;;;;;;;17.88;49.93;98780.88;2091427;28;19916;-65
2022/04/01 04:40:25;;;;;;;;;;;;;;;17.88;49.74;98786.31;2086251;28;19916;-63
2022/04/01 04:41:26;;;;;;;;;;;;;;;17.88;49.79;98775.41;2090654;28;19926;-63
2022/04/01 04:42:27;;;;;;;;;;;;;;;17.89;49.77;98787.19;2081444;28;19916;-63
2022/04/01 04:43:28;;;;;;;;;;;;;;;17.87;49.69;98778.34;2082127;28;20664;-63
2022/04/01 04:44:31;;;;;;;;;;;;;;;17.88;49.63;98783.59;2074327;28;20371;-63
2022/04/01 04:45:32;;;;;;;;;;;;;;;17.88;49.47;98786.31;2071408;28;19919;-63
2022/04/01 04:46:34;;;;;;;;;;;;;;;17.86;49.75;98788.41;2076124;28;19917;-63
2022/04/01 04:47:35;;;;;;;;;;;;;;;17.86;49.70;98788.41;2092358;28;20457;-63
2022/04/01 04:48:36;;;;;;;;;;;;;;;17.87;49.43;98786.50;2090003;28;21114;-64
2022/04/01 04:49:41;;;;;;;;;;;;;;;17.87;49.57;98792.81;2091975;28;20421;-63
2022/04/01 04:50:44;;;;;;;;;;;;;;;17.88;49.68;98805.41;2078239;28;19927;-64
2022/04/01 04:51:46;;;;;;;;;;;;;;;17.89;49.60;98795.38;2080512;28;20464;-64
2022/04/01 04:52:50;;;;;;;;;;;;;;;17.88;49.69;98789.03;2090771;28;19912;-63
2022/04/01 04:53:51;;;;;;;;;;;;;;;17.89;49.61;98793.50;2081018;28;19920;-64
2022/04/01 04:54:52;;;;;;;;;;;;;;;17.89;49.82;98801.66;2080914;28;20465;-64
2022/04/01 04:55:53;;;;;;;;;;;;;;;17.88;49.82;98802.69;2090410;28;19962;-64
2022/04/01 04:56:54;;;;;;;;;;;;;;;17.88;49.73;98802.69;2089780;28;19912;-63
2022/04/01 04:57:55;;;;;;;;;;;;;;;17.90;49.99;98806.09;2092274;28;19920;-64
2022/04/01 04:58:55;;;;;;;;;;;;;;;17.89;49.92;98804.41;2089340;28;19920;-64
2022/04/01 04:59:56;;;;;;;;;;;;;;;17.89;49.94;98809.84;2087632;28;19920;-65
2022/04/01 05:01:00;;;;;;;;;;;;;;;17.91;49.86;98812.41;2083915;28;20685;-64
2022/04/01 05:02:10;;;;;;;;;;;;;;;17.91;50.07;98806.97;2089701;28;19916;-64
2022/04/01 05:03:13;;;;;;;;;;;;;;;17.91;49.91;98818.72;2079157;28;19920;-64
2022/04/01 05:04:39;;;;;;;;;;;;;;;17.92;49.95;98819.56;2080335;28;19975;-64
2022/04/01 05:05:47;;;;;;;;;;;;;;;17.91;49.87;98813.25;2087472;28;20024;-64
2022/04/01 05:07:01;;;;;;;;;;;;;;;17.92;49.98;98814.94;2086292;28;20015;-64
2022/04/01 05:08:17;;;;;;;;;;;;;;;17.93;49.75;98821.25;2084454;28;20035;-64
2022/04/01 05:09:20;;;;;;;;;;;;;;;17.94;49.93;98831.16;2086247;28;20303;-64
2022/04/01 05:10:26;;;;;;;;;;;;;;;17.91;49.79;98829.63;2089767;28;20014;-64
2022/04/01 05:11:39;;;;;;;;;;;;;;;17.94;49.76;98834.72;2089589;28;20030;-64
2022/04/01 05:13:03;;;;;;;;;;;;;;;17.93;49.42;98835.75;2091315;28;19938;-65
2022/04/01 05:14:12;;;;;;;;;;;;;;;17.92;49.63;98835.91;2085798;28;19920;-64
2022/04/01 05:15:17;;;;;;;;;;;;;;;17.92;49.82;98839.50;2090040;28;19951;-63
2022/04/01 05:16:37;;;;;;;;;;;;;;;17.93;49.76;98843.94;2091160;28;19942;-64
2022/04/01 05:17:47;;;;;;;;;;;;;;;17.94;49.48;98845.63;2088657;28;19920;-64
2022/04/01 05:18:53;;;;;;;;;;;;;;;17.93;49.78;98849.38;2086796;28;19923;-64
2022/04/01 05:19:58;;;;;;;;;;;;;;;17.93;49.59;98843.06;2088943;28;19942;-64
2022/04/01 05:21:00;;;;;;;;;;;;;;;17.93;49.43;98846.66;2093068;28;19940;-64
2022/04/01 05:22:04;;;;;;;;;;;;;;;17.93;49.61;98849.38;2079519;28;19917;-64
2022/04/01 05:23:07;;;;;;;;;;;;;;;17.93;49.55;98843.94;2080273;28;20024;-64
2022/04/01 05:24:08;;;;;;;;;;;;;;;17.92;49.63;98855.00;2088740;28;19916;-64
2022/04/01 05:25:11;;;;;;;;;;;;;;;17.93;49.55;98853.97;2085448;28;20063;-64
2022/04/01 05:26:13;;;;;;;;;;;;;;;17.92;49.44;98847.66;2088582;28;19930;-64
2022/04/01 05:27:13;;;;;;;;;;;;;;;17.93;49.35;98857.56;2087790;28;20022;-63
2022/04/01 05:28:22;;;;;;;;;;;;;;;17.93;49.35;98860.28;2088875;28;19924;-64